createdAt,value
2022-10-18T00:01:11.646Z,14.10
2022-10-18T00:03:40.504Z,14.20
2022-10-18T00:06:10.182Z,14.20
2022-10-18T00:08:40.732Z,14.20
2022-10-18T00:11:09.434Z,14.10
2022-10-18T00:13:38.871Z,14.10
2022-10-18T00:16:12.781Z,14.10
2022-10-18T00:18:41.049Z,14.20
2022-10-18T00:21:11.863Z,14.20
2022-10-18T00:23:41.835Z,14.20
2022-10-18T00:26:13.361Z,14.20
2022-10-18T00:28:42.288Z,14.20
2022-10-18T00:31:12.585Z,14.10
2022-10-18T00:33:41.510Z,14.10
2022-10-18T00:36:10.193Z,14.10
2022-10-18T00:38:38.722Z,14.10
2022-10-18T00:41:10.638Z,14.10
2022-10-18T00:44:00.135Z,14.10
2022-10-18T00:46:30.384Z,14.00
2022-10-18T00:49:15.217Z,14.00
2022-10-18T00:51:48.355Z,13.90
2022-10-18T00:54:17.856Z,14.00
2022-10-18T00:56:47.603Z,14.00
2022-10-18T00:59:18.022Z,14.00
2022-10-18T01:01:46.909Z,14.00
2022-10-18T01:04:16.307Z,14.00
2022-10-18T01:09:35.183Z,13.80
2022-10-18T01:12:15.472Z,13.80
2022-10-18T01:14:49.496Z,13.90
2022-10-18T01:17:23.716Z,13.90
2022-10-18T01:20:24.292Z,13.90
2022-10-18T01:22:57.786Z,13.90
2022-10-18T01:25:37.940Z,14.00
2022-10-18T01:28:21.328Z,14.00
2022-10-18T01:30:55.159Z,14.00
2022-10-18T01:33:29.282Z,14.10
2022-10-18T01:36:03.166Z,14.10
2022-10-18T01:38:33.911Z,14.10
2022-10-18T01:41:03.656Z,14.00
2022-10-18T01:43:33.783Z,14.00
2022-10-18T01:46:05.895Z,14.00
2022-10-18T01:48:38.095Z,14.00
2022-10-18T01:51:06.946Z,14.00
2022-10-18T01:53:36.388Z,14.00
2022-10-18T01:56:28.742Z,13.80
2022-10-18T01:59:11.510Z,13.70
2022-10-18T02:01:52.164Z,13.70
2022-10-18T02:04:28.809Z,13.60
2022-10-18T02:07:03.968Z,13.80
2022-10-18T02:09:39.632Z,13.70
2022-10-18T02:12:11.743Z,13.70
2022-10-18T02:14:42.490Z,13.60
2022-10-18T02:17:13.891Z,13.60
2022-10-18T02:19:45.100Z,13.60
2022-10-18T02:22:15.389Z,13.60
2022-10-18T02:24:46.079Z,13.60
2022-10-18T02:27:14.356Z,13.60
2022-10-18T02:29:44.677Z,13.50
2022-10-18T02:32:21.114Z,13.60
2022-10-18T02:34:55.472Z,13.60
2022-10-18T02:37:24.532Z,13.60
2022-10-18T02:39:53.140Z,13.50
2022-10-18T02:42:21.366Z,13.50
2022-10-18T02:44:49.626Z,13.50
2022-10-18T02:47:19.261Z,13.50
2022-10-18T02:49:47.527Z,13.50
2022-10-18T02:52:15.778Z,13.50
2022-10-18T02:54:43.972Z,13.50
2022-10-18T02:57:12.152Z,13.50
2022-10-18T02:59:40.430Z,13.50
2022-10-18T03:02:08.627Z,13.50
2022-10-18T03:04:38.231Z,13.70
2022-10-18T03:07:06.508Z,13.60
2022-10-18T03:09:34.679Z,13.60
2022-10-18T03:12:03.003Z,13.60
2022-10-18T03:14:31.171Z,13.40
2022-10-18T03:16:59.343Z,13.30
2022-10-18T03:19:27.575Z,13.20
2022-10-18T03:21:57.256Z,13.10
2022-10-18T03:24:25.493Z,13.00
2022-10-18T03:26:53.675Z,12.80
2022-10-18T03:29:21.834Z,12.80
2022-10-18T03:31:50.020Z,12.80
2022-10-18T03:34:18.401Z,12.80
2022-10-18T03:36:46.767Z,12.80
2022-10-18T03:39:16.318Z,13.00
2022-10-18T03:41:44.574Z,13.00
2022-10-18T03:44:12.755Z,13.00
2022-10-18T03:46:41.012Z,13.00
2022-10-18T03:49:09.224Z,13.00
2022-10-18T03:51:37.392Z,13.00
2022-10-18T03:54:05.756Z,13.00
2022-10-18T03:56:35.521Z,13.00
2022-10-18T03:59:04.557Z,12.90
2022-10-18T04:01:32.966Z,13.00
2022-10-18T04:04:01.253Z,12.90
2022-10-18T04:06:29.462Z,12.90
2022-10-18T04:08:57.654Z,12.80
2022-10-18T04:11:25.897Z,12.60
2022-10-18T04:13:55.591Z,12.40
2022-10-18T04:16:23.829Z,12.20
2022-10-18T04:18:52.093Z,12.20
2022-10-18T04:21:20.692Z,12.20
2022-10-18T04:23:49.120Z,12.10
2022-10-18T04:26:17.597Z,12.10
2022-10-18T04:28:46.353Z,12.00
2022-10-18T04:31:16.015Z,12.00
2022-10-18T04:33:44.407Z,11.80
2022-10-18T04:36:12.636Z,11.70
2022-10-18T04:38:40.857Z,11.60
2022-10-18T04:41:09.121Z,11.50
2022-10-18T04:43:37.448Z,11.50
2022-10-18T04:46:05.767Z,11.50
2022-10-18T04:48:35.411Z,11.30
2022-10-18T04:51:03.577Z,11.30
2022-10-18T04:53:32.621Z,11.20
2022-10-18T04:56:00.840Z,11.20
2022-10-18T04:58:29.281Z,11.10
2022-10-18T05:00:57.449Z,11.10
2022-10-18T05:03:25.759Z,11.10
2022-10-18T05:06:03.515Z,11.00
2022-10-18T05:08:33.550Z,11.10
2022-10-18T05:11:02.055Z,11.10
2022-10-18T05:13:30.378Z,11.10
2022-10-18T05:15:59.530Z,11.00
2022-10-18T05:18:27.970Z,10.90
2022-10-18T05:20:57.860Z,11.00
2022-10-18T05:23:26.431Z,11.20
2022-10-18T05:25:54.640Z,11.20
2022-10-18T05:28:41.061Z,11.20
2022-10-18T05:31:11.288Z,11.10
2022-10-18T05:33:39.532Z,11.20
2022-10-18T05:36:09.903Z,11.20
2022-10-18T05:38:42.206Z,11.10
2022-10-18T05:41:11.306Z,11.10
2022-10-18T05:43:39.921Z,11.00
2022-10-18T05:46:13.676Z,11.00
2022-10-18T05:48:44.112Z,11.00
2022-10-18T05:51:13.708Z,11.00
2022-10-18T05:53:42.015Z,11.00
2022-10-18T05:56:11.844Z,10.90
2022-10-18T05:58:40.659Z,10.90
2022-10-18T06:01:10.206Z,10.90
2022-10-18T06:03:38.500Z,10.80
2022-10-18T06:06:08.927Z,10.80
2022-10-18T06:08:39.602Z,10.90
2022-10-18T06:11:09.044Z,10.90
2022-10-18T06:13:41.187Z,10.90
2022-10-18T06:16:10.147Z,11.00
2022-10-18T06:18:38.603Z,10.90
2022-10-18T06:21:08.068Z,10.80
2022-10-18T06:23:36.504Z,10.80
2022-10-18T06:26:07.655Z,10.80
2022-10-18T06:28:37.112Z,10.80
2022-10-18T06:31:06.573Z,10.80
2022-10-18T06:33:36.789Z,10.80
2022-10-18T06:36:07.278Z,10.80
2022-10-18T06:38:36.391Z,10.80
2022-10-18T06:41:06.797Z,10.70
2022-10-18T06:43:36.575Z,10.70
2022-10-18T06:46:07.660Z,10.70
2022-10-18T06:48:36.717Z,10.70
2022-10-18T06:51:06.920Z,10.60
2022-10-18T06:53:44.240Z,10.60
2022-10-18T06:56:22.972Z,10.70
2022-10-18T06:58:51.281Z,10.70
2022-10-18T07:01:20.044Z,10.70
2022-10-18T07:03:49.543Z,10.70
2022-10-18T07:06:19.528Z,10.80
2022-10-18T07:08:48.366Z,10.90
2022-10-18T07:11:19.735Z,11.00
2022-10-18T07:13:49.302Z,11.20
2022-10-18T07:16:19.196Z,11.30
2022-10-18T07:18:49.560Z,11.50
2022-10-18T07:21:19.504Z,11.70
2022-10-18T07:23:48.291Z,11.80
2022-10-18T07:26:18.720Z,12.00
2022-10-18T07:28:50.766Z,12.10
2022-10-18T07:31:19.383Z,12.20
2022-10-18T07:33:47.602Z,12.40
2022-10-18T07:36:16.137Z,12.50
2022-10-18T07:38:44.711Z,12.60
2022-10-18T07:41:14.150Z,12.60
2022-10-18T07:43:47.499Z,12.70
2022-10-18T07:46:17.589Z,12.90
2022-10-18T07:48:45.889Z,13.00
2022-10-18T07:51:14.663Z,13.20
2022-10-18T07:53:42.943Z,13.50
2022-10-18T07:56:16.188Z,13.80
2022-10-18T07:58:45.263Z,14.00
2022-10-18T08:01:15.272Z,14.20
2022-10-18T08:03:44.988Z,14.30
2022-10-18T08:06:15.259Z,14.40
2022-10-18T08:08:43.601Z,14.60
2022-10-18T08:11:14.995Z,14.80
2022-10-18T08:13:43.543Z,15.10
2022-10-18T08:16:13.585Z,15.30
2022-10-18T08:18:42.027Z,15.50
2022-10-18T08:21:13.227Z,15.70
2022-10-18T08:23:42.203Z,15.90
2022-10-18T08:26:13.053Z,16.10
2022-10-18T08:28:46.086Z,16.30
2022-10-18T08:31:20.387Z,16.50
2022-10-18T08:33:49.010Z,16.60
2022-10-18T08:36:19.431Z,16.80
2022-10-18T08:38:49.356Z,17.10
2022-10-18T08:41:51.106Z,17.30
2022-10-18T08:44:22.785Z,17.50
2022-10-18T08:46:53.248Z,17.70
2022-10-18T08:52:18.115Z,17.80
2022-10-18T08:54:55.068Z,17.80
2022-10-18T08:57:23.463Z,18.00
2022-10-18T08:59:51.797Z,18.30
2022-10-18T09:02:37.316Z,18.40
2022-10-18T09:05:14.418Z,18.30
2022-10-18T09:08:21.199Z,18.40
2022-10-18T09:14:07.484Z,18.50
2022-10-18T09:16:46.880Z,18.40
2022-10-18T09:19:27.315Z,18.50
2022-10-18T09:21:59.352Z,18.40
2022-10-18T09:24:40.269Z,18.40
2022-10-18T09:27:16.487Z,18.40
2022-10-18T09:29:59.333Z,18.50
2022-10-18T09:32:35.471Z,18.70
2022-10-18T09:35:12.988Z,18.60
2022-10-18T09:37:42.445Z,18.70
2022-10-18T09:40:19.178Z,18.80
2022-10-18T09:42:56.067Z,18.80
2022-10-18T09:45:28.900Z,18.50
2022-10-18T09:48:06.904Z,18.60
2022-10-18T09:50:40.420Z,18.50
2022-10-18T09:53:18.101Z,18.70
2022-10-18T09:56:00.704Z,19.00
2022-10-18T09:58:40.259Z,19.20
2022-10-18T10:01:10.513Z,19.10
2022-10-18T10:03:38.961Z,19.10
2022-10-18T10:06:26.023Z,19.30
2022-10-18T10:09:01.463Z,19.20
2022-10-18T10:11:35.099Z,19.00
2022-10-18T10:14:11.074Z,18.60
2022-10-18T10:16:55.653Z,18.70
2022-10-18T10:19:30.750Z,19.10
2022-10-18T10:22:04.080Z,19.40
2022-10-18T10:24:48.722Z,19.70
2022-10-18T10:27:21.975Z,20.00
2022-10-18T10:29:58.179Z,20.30
2022-10-18T10:32:31.296Z,20.20
2022-10-18T10:35:00.592Z,20.00
2022-10-18T10:37:34.456Z,19.90
2022-10-18T10:40:22.063Z,19.90
2022-10-18T10:43:32.908Z,20.10
2022-10-18T10:46:08.801Z,20.00
2022-10-18T10:48:47.841Z,20.30
2022-10-18T10:51:18.253Z,20.30
2022-10-18T10:53:52.323Z,19.80
2022-10-18T10:56:26.836Z,19.50
2022-10-18T10:58:59.488Z,19.50
2022-10-18T11:01:32.981Z,19.90
2022-10-18T11:04:02.965Z,20.60
2022-10-18T11:06:51.535Z,21.00
2022-10-18T11:09:33.229Z,21.40
2022-10-18T11:12:13.785Z,21.50
2022-10-18T11:14:48.152Z,21.80
2022-10-18T11:17:23.696Z,21.90
2022-10-18T11:20:05.307Z,22.20
2022-10-18T11:22:38.917Z,21.80
2022-10-18T11:25:07.831Z,21.50
2022-10-18T11:27:40.783Z,21.80
2022-10-18T11:30:38.410Z,21.70
2022-10-18T11:33:20.380Z,22.00
2022-10-18T11:35:59.112Z,22.30
2022-10-18T11:38:41.296Z,22.50
2022-10-18T11:41:32.292Z,22.20
2022-10-18T11:44:03.843Z,22.30
2022-10-18T11:46:47.056Z,22.40
2022-10-18T11:49:29.115Z,22.60
2022-10-18T11:52:09.594Z,22.60
2022-10-18T11:54:46.265Z,22.50
2022-10-18T11:57:31.945Z,22.60
2022-10-18T12:00:09.393Z,22.10
2022-10-18T12:02:58.376Z,21.80
2022-10-18T12:05:54.751Z,22.20
2022-10-18T12:08:29.691Z,22.50
2022-10-18T12:11:05.545Z,22.70
2022-10-18T12:13:38.693Z,22.80
2022-10-18T12:16:09.463Z,22.70
2022-10-18T12:18:42.828Z,22.70
2022-10-18T12:21:14.437Z,23.00
2022-10-18T12:24:38.274Z,23.00
2022-10-18T12:27:58.679Z,23.30
2022-10-18T12:31:00.449Z,23.10
2022-10-18T12:33:39.201Z,23.00
2022-10-18T12:36:20.702Z,23.20
2022-10-18T12:38:52.333Z,22.90
2022-10-18T12:41:26.071Z,22.80
2022-10-18T12:43:57.259Z,22.60
2022-10-18T12:46:45.051Z,22.40
2022-10-18T12:56:32.351Z,20.40
2022-10-18T12:59:33.064Z,20.70
2022-10-18T13:02:25.608Z,21.50
2022-10-18T13:04:54.399Z,21.80
2022-10-18T13:07:34.709Z,22.20
2022-10-18T13:10:39.799Z,22.40
2022-10-18T13:16:30.922Z,22.30
2022-10-18T13:19:11.515Z,22.40
2022-10-18T13:21:47.136Z,22.50
2022-10-18T13:24:27.206Z,22.60
2022-10-18T13:27:36.803Z,22.50
2022-10-18T13:30:28.715Z,22.00
2022-10-18T13:33:08.604Z,22.10
2022-10-18T13:35:52.905Z,22.10
2022-10-18T13:38:37.862Z,22.20
2022-10-18T13:41:08.829Z,21.90
2022-10-18T13:44:00.648Z,22.00
2022-10-18T13:47:02.004Z,22.10
2022-10-18T13:49:39.587Z,22.30
2022-10-18T13:52:22.271Z,22.30
2022-10-18T13:55:07.273Z,22.20
2022-10-18T13:57:48.864Z,22.20
2022-10-18T14:00:49.023Z,22.10
2022-10-18T14:03:58.702Z,22.00
2022-10-18T14:06:29.418Z,21.90
2022-10-18T14:09:09.617Z,21.90
2022-10-18T14:11:51.848Z,21.70
2022-10-18T14:14:26.572Z,21.70
2022-10-18T14:17:00.784Z,21.40
2022-10-18T14:19:33.997Z,21.30
2022-10-18T14:22:12.585Z,21.10
2022-10-18T14:24:45.457Z,21.10
2022-10-18T14:27:18.108Z,21.30
2022-10-18T14:29:46.855Z,21.30
2022-10-18T14:32:25.413Z,21.30
2022-10-18T14:34:55.773Z,21.00
2022-10-18T14:37:34.395Z,21.00
2022-10-18T14:40:05.514Z,21.10
2022-10-18T14:42:33.755Z,20.80
2022-10-18T14:45:02.075Z,20.40
2022-10-18T14:47:33.692Z,20.00
2022-10-18T14:50:04.786Z,19.50
2022-10-18T14:52:35.763Z,19.10
2022-10-18T14:55:06.336Z,18.80
2022-10-18T14:57:36.881Z,18.50
2022-10-18T15:00:09.186Z,18.30
2022-10-18T15:02:39.740Z,18.10
2022-10-18T15:05:11.550Z,18.00
2022-10-18T15:07:39.886Z,17.90
2022-10-18T15:10:12.274Z,17.80
2022-10-18T15:12:57.763Z,17.80
2022-10-18T15:15:33.224Z,17.70
2022-10-18T15:18:02.783Z,17.60
2022-10-18T15:20:33.555Z,17.60
2022-10-18T15:23:23.925Z,17.50
2022-10-18T15:25:54.464Z,17.40
2022-10-18T15:28:30.274Z,17.30
2022-10-18T15:30:59.308Z,17.30
2022-10-18T15:33:33.671Z,17.20
2022-10-18T15:36:10.189Z,17.10
2022-10-18T15:38:39.199Z,17.00
2022-10-18T15:41:40.288Z,17.00
2022-10-18T15:44:13.258Z,16.90
2022-10-18T15:46:42.879Z,16.80
2022-10-18T15:49:56.776Z,16.70
2022-10-18T15:52:38.885Z,16.60
2022-10-18T15:55:47.780Z,16.50
2022-10-18T15:58:22.638Z,16.40
2022-10-18T16:00:51.867Z,16.30
2022-10-18T16:03:22.116Z,16.20
2022-10-18T16:05:52.071Z,16.00
2022-10-18T16:11:02.919Z,15.80
2022-10-18T16:13:32.733Z,15.70
2022-10-18T16:16:03.806Z,15.60
2022-10-18T16:18:32.236Z,15.50
2022-10-18T16:21:02.330Z,15.40
2022-10-18T16:23:30.795Z,15.30
2022-10-18T16:25:59.091Z,15.20
2022-10-18T16:28:31.819Z,15.10
2022-10-18T16:31:03.910Z,15.00
2022-10-18T16:33:32.637Z,14.90
2022-10-18T16:36:00.984Z,14.80
2022-10-18T16:38:34.259Z,14.70
2022-10-18T16:41:04.853Z,14.60
2022-10-18T16:43:34.704Z,14.60
2022-10-18T16:46:05.663Z,14.50
2022-10-18T16:48:34.761Z,14.50
2022-10-18T16:51:03.473Z,14.40
2022-10-18T16:53:32.002Z,14.20
2022-10-18T16:56:03.708Z,14.10
2022-10-18T16:58:33.426Z,14.00
2022-10-18T17:01:04.143Z,13.80
2022-10-18T17:03:36.586Z,13.70
2022-10-18T17:06:05.390Z,13.60
2022-10-18T17:08:33.778Z,13.50
2022-10-18T17:11:03.431Z,13.40
2022-10-18T17:13:31.757Z,13.30
2022-10-18T17:16:03.939Z,13.20
2022-10-18T17:18:32.933Z,13.10
2022-10-18T17:21:03.396Z,12.90
2022-10-18T17:23:31.893Z,12.80
2022-10-18T17:26:06.791Z,12.70
2022-10-18T17:28:38.497Z,12.60
2022-10-18T17:31:08.311Z,12.50
2022-10-18T17:33:37.234Z,12.40
2022-10-18T17:36:07.247Z,12.40
2022-10-18T17:38:35.563Z,12.40
2022-10-18T17:41:07.980Z,12.30
2022-10-18T17:43:37.965Z,12.20
2022-10-18T17:46:06.721Z,12.10
2022-10-18T17:48:35.287Z,12.20
2022-10-18T17:51:13.180Z,12.20
2022-10-18T17:53:41.853Z,12.20
2022-10-18T17:56:11.350Z,12.20
2022-10-18T17:58:40.035Z,12.20
2022-10-18T18:01:12.495Z,12.20
2022-10-18T18:03:40.810Z,12.20
2022-10-18T18:06:21.472Z,12.30
2022-10-18T18:08:50.907Z,12.40
2022-10-18T18:11:19.498Z,12.40
2022-10-18T18:13:49.987Z,12.30
2022-10-18T18:16:20.571Z,12.30
2022-10-18T18:18:51.492Z,12.20
2022-10-18T18:21:22.300Z,12.10
2022-10-18T18:23:51.247Z,12.00
2022-10-18T18:26:20.454Z,11.90
2022-10-18T18:28:49.424Z,11.80
2022-10-18T18:31:19.775Z,11.90
2022-10-18T18:33:48.200Z,12.00
2022-10-18T18:36:16.655Z,12.00
2022-10-18T18:38:46.989Z,12.10
2022-10-18T18:41:17.968Z,12.20
2022-10-18T18:43:48.100Z,12.20
2022-10-18T18:46:17.519Z,12.20
2022-10-18T18:48:45.861Z,12.20
2022-10-18T18:51:17.350Z,12.10
2022-10-18T18:53:48.257Z,12.00
2022-10-18T18:56:18.217Z,11.90
2022-10-18T18:58:47.884Z,11.80
2022-10-18T19:01:18.552Z,11.80
2022-10-18T19:03:48.814Z,11.90
2022-10-18T19:06:19.323Z,11.80
2022-10-18T19:08:49.680Z,11.80
2022-10-18T19:11:20.759Z,11.90
2022-10-18T19:13:49.922Z,12.10
2022-10-18T19:16:25.524Z,12.10
2022-10-18T19:19:03.263Z,12.10
2022-10-18T19:21:33.645Z,12.00
2022-10-18T19:24:04.010Z,12.10
2022-10-18T19:26:36.717Z,12.00
2022-10-18T19:29:10.237Z,12.00
2022-10-18T19:31:39.697Z,12.00
2022-10-18T19:34:09.275Z,12.00
2022-10-18T19:36:38.568Z,12.00
2022-10-18T19:39:09.951Z,12.00
2022-10-18T19:41:38.422Z,11.90
2022-10-18T19:44:07.414Z,11.90
2022-10-18T19:46:35.662Z,11.90
2022-10-18T19:49:04.069Z,12.00
2022-10-18T19:51:32.442Z,12.00
2022-10-18T19:54:00.812Z,11.90
2022-10-18T19:56:30.974Z,11.90
2022-10-18T19:59:00.200Z,11.90
2022-10-18T20:01:31.715Z,11.90
2022-10-18T20:04:00.114Z,11.80
2022-10-18T20:06:28.505Z,11.80
2022-10-18T20:08:56.949Z,11.70
2022-10-18T20:11:27.237Z,11.70
2022-10-18T20:13:57.730Z,11.70
2022-10-18T20:16:28.799Z,11.50
2022-10-18T20:18:58.733Z,11.60
2022-10-18T20:21:28.490Z,11.80
2022-10-18T20:23:57.220Z,11.90
2022-10-18T20:26:26.414Z,11.90
2022-10-18T20:28:57.732Z,12.00
2022-10-18T20:31:28.844Z,12.00
2022-10-18T20:33:58.457Z,12.10
2022-10-18T20:36:27.929Z,12.20
2022-10-18T20:38:56.909Z,12.20
2022-10-18T20:41:27.215Z,12.20
2022-10-18T20:43:58.866Z,12.20
2022-10-18T20:46:27.894Z,12.30
2022-10-18T20:48:56.615Z,12.20
2022-10-18T20:51:25.407Z,12.20
2022-10-18T20:53:54.516Z,12.10
2022-10-18T20:56:26.646Z,12.10
2022-10-18T20:58:58.211Z,12.00
2022-10-18T21:01:28.693Z,12.00
2022-10-18T21:03:58.863Z,12.00
2022-10-18T21:06:29.608Z,12.00
2022-10-18T21:08:59.900Z,11.90
2022-10-18T21:11:29.457Z,11.80
2022-10-18T21:14:02.713Z,11.70
2022-10-18T21:16:31.490Z,11.70
2022-10-18T21:19:04.091Z,11.60
2022-10-18T21:21:33.111Z,11.60
2022-10-18T21:24:04.056Z,11.60
2022-10-18T21:26:36.415Z,11.50
2022-10-18T21:29:06.568Z,11.40
2022-10-18T21:31:37.338Z,11.50
2022-10-18T21:34:08.298Z,11.50
2022-10-18T21:36:38.133Z,11.50
2022-10-18T21:39:08.400Z,11.50
2022-10-18T21:41:37.907Z,11.50
2022-10-18T21:44:10.686Z,11.50
2022-10-18T21:46:40.362Z,11.40
2022-10-18T21:49:10.385Z,11.50
2022-10-18T21:51:38.996Z,11.60
2022-10-18T21:54:09.090Z,11.60
2022-10-18T21:56:37.454Z,11.60
2022-10-18T21:59:07.564Z,11.60
2022-10-18T22:01:38.062Z,11.60
2022-10-18T22:04:08.573Z,11.60
2022-10-18T22:06:37.665Z,11.60
2022-10-18T22:09:08.810Z,11.60
2022-10-18T22:11:40.414Z,11.60
2022-10-18T22:14:10.492Z,11.60
2022-10-18T22:16:38.946Z,11.50
2022-10-18T22:19:08.508Z,11.50
2022-10-18T22:21:36.982Z,11.40
2022-10-18T22:24:07.590Z,11.40
2022-10-18T22:26:38.863Z,11.40
2022-10-18T22:29:11.352Z,11.40
2022-10-18T22:31:42.073Z,11.50
2022-10-18T22:34:13.071Z,11.50
2022-10-18T22:36:42.116Z,11.60
2022-10-18T22:39:11.093Z,11.60
2022-10-18T22:41:39.396Z,11.50
2022-10-18T22:44:09.358Z,11.50
2022-10-18T22:46:37.786Z,11.40
2022-10-18T22:49:06.136Z,11.40
2022-10-18T22:54:04.307Z,11.40
2022-10-18T22:56:32.597Z,11.40
2022-10-18T22:59:00.860Z,11.40
2022-10-18T23:01:30.518Z,11.40
2022-10-18T23:04:00.395Z,11.30
2022-10-18T23:06:31.044Z,11.20
2022-10-18T23:09:01.740Z,11.20
2022-10-18T23:11:30.602Z,11.20
2022-10-18T23:13:59.094Z,11.10
2022-10-18T23:16:27.423Z,11.10
2022-10-18T23:18:59.509Z,11.10
2022-10-18T23:21:29.155Z,11.10
2022-10-18T23:23:58.423Z,11.20
2022-10-18T23:26:28.770Z,11.20
2022-10-18T23:28:57.950Z,11.10
2022-10-18T23:31:29.068Z,11.00
2022-10-18T23:34:00.381Z,11.00
2022-10-18T23:36:29.326Z,11.00
2022-10-18T23:38:57.594Z,11.10
2022-10-18T23:41:26.871Z,11.00
2022-10-18T23:43:55.653Z,11.10
2022-10-18T23:46:24.331Z,11.00
2022-10-18T23:48:52.612Z,11.00
2022-10-18T23:51:22.311Z,11.00
2022-10-18T23:53:50.582Z,11.00
2022-10-18T23:56:18.948Z,11.00
2022-10-18T23:58:47.754Z,11.00
